createdAt,value
2022-11-16T01:03:12.715Z,96.41
2022-11-16T01:30:40.696Z,97.59
2022-11-16T01:59:20.868Z,100
2022-11-16T02:27:58.406Z,100
2022-11-16T02:56:30.284Z,99.8
2022-11-16T03:26:05.984Z,100
2022-11-16T03:54:28.824Z,100
2022-11-16T04:23:20.707Z,100
2022-11-16T04:52:37.939Z,98.53
2022-11-16T05:21:06.297Z,98.79
2022-11-16T05:49:38.573Z,100
2022-11-16T06:18:24.675Z,98.74
2022-11-16T06:46:48.123Z,98.64
2022-11-16T07:15:16.315Z,97.54
2022-11-16T07:43:36.613Z,95.7
2022-11-16T08:12:08.046Z,93.77
2022-11-16T08:40:40.448Z,90.94
2022-11-16T09:37:33.437Z,85.83
2022-11-16T11:02:44.041Z,76.81
2022-11-16T11:31:20.255Z,70.02
2022-11-16T11:59:46.061Z,68.87
2022-11-16T12:28:25.364Z,66.86
2022-11-16T12:57:05.137Z,66.33
2022-11-16T13:25:25.474Z,66.88
2022-11-16T14:22:12.548Z,69.99
2022-11-16T14:50:30.275Z,70.61
2022-11-16T15:19:01.796Z,73.11
2022-11-16T15:47:29.207Z,75.92
2022-11-16T16:15:48.051Z,77.03
2022-11-16T16:44:08.060Z,78.48
2022-11-16T17:12:40.822Z,76.17
2022-11-16T17:41:00.745Z,78.09
2022-11-16T18:09:31.093Z,78.43
2022-11-16T18:37:40.878Z,78.24
2022-11-16T19:06:15.447Z,80.17
2022-11-16T19:34:41.973Z,80.95
2022-11-16T20:02:56.885Z,78.34
2022-11-16T21:00:29.034Z,81.67
2022-11-16T21:28:53.281Z,80.86
2022-11-16T21:57:34.393Z,82.62
2022-11-16T22:25:57.748Z,84.31
2022-11-16T22:54:32.443Z,85.16
2022-11-16T23:25:21.356Z,84.55
